createdAt,value
2023-03-17T00:01:51.507Z,94691.31
2023-03-17T00:04:20.158Z,94673.25
2023-03-17T00:06:48.755Z,94695.03
2023-03-17T00:09:19.914Z,94672.88
2023-03-17T00:11:49.076Z,94688.38
2023-03-17T00:14:17.800Z,94700.50
2023-03-17T00:16:49.673Z,94704.00
2023-03-17T00:19:19.000Z,94704.09
2023-03-17T00:21:47.175Z,94682.25
2023-03-17T00:24:15.950Z,94673.72
2023-03-17T00:26:46.213Z,94693.09
2023-03-17T00:29:16.282Z,94678.16
2023-03-17T00:31:45.678Z,94692.84
2023-03-17T00:34:18.293Z,94688.81
2023-03-17T00:36:48.066Z,94699.47
2023-03-17T00:41:43.759Z,94684.38
2023-03-17T00:44:13.145Z,94690.09
2023-03-17T00:46:42.501Z,94691.09
2023-03-17T00:51:44.924Z,94678.63
2023-03-17T00:54:14.396Z,94702.16
2023-03-17T00:56:43.934Z,94697.72
2023-03-17T00:59:20.865Z,94699.72
2023-03-17T01:01:49.451Z,94689.63
2023-03-17T01:04:17.419Z,94701.97
2023-03-17T01:06:45.560Z,94694.53
2023-03-17T01:09:15.541Z,94695.47
2023-03-17T01:11:44.205Z,94710.13
2023-03-17T01:14:15.318Z,94703.38
2023-03-17T01:16:44.751Z,94705.47
2023-03-17T01:19:13.990Z,94685.16
2023-03-17T01:21:42.788Z,94706.97
2023-03-17T01:24:10.694Z,94659.53
2023-03-17T01:26:39.033Z,94709.91
2023-03-17T01:29:08.045Z,94714.41
2023-03-17T01:31:37.487Z,94674.72
2023-03-17T01:34:06.221Z,94713.06
2023-03-17T01:36:34.292Z,94708.91
2023-03-17T01:39:03.410Z,94707.75
2023-03-17T01:41:34.824Z,94713.56
2023-03-17T01:44:02.777Z,94712.75
2023-03-17T01:46:31.978Z,94711.59
2023-03-17T01:49:14.576Z,94686.31
2023-03-17T01:51:51.386Z,94707.91
2023-03-17T01:54:25.335Z,94714.88
2023-03-17T01:56:55.325Z,94719.44
2023-03-17T01:59:27.144Z,94699.84
2023-03-17T02:02:01.411Z,94713.19
2023-03-17T02:04:31.634Z,94723.09
2023-03-17T02:06:59.799Z,94714.34
2023-03-17T02:09:29.459Z,94724.44
2023-03-17T02:11:59.907Z,94695.88
2023-03-17T02:14:27.902Z,94712.66
2023-03-17T02:16:55.844Z,94729.41
2023-03-17T02:19:23.841Z,94733.47
2023-03-17T02:21:55.135Z,94727.69
2023-03-17T02:24:34.362Z,94725.91
2023-03-17T02:27:07.728Z,94721.16
2023-03-17T02:29:37.933Z,94734.44
2023-03-17T02:32:06.646Z,94732.38
2023-03-17T02:34:35.024Z,94735.16
2023-03-17T02:37:04.371Z,94707.22
2023-03-17T02:39:32.939Z,94742.31
2023-03-17T02:42:01.260Z,94730.97
2023-03-17T02:44:29.183Z,94744.91
2023-03-17T02:46:57.133Z,94752.75
2023-03-17T02:49:25.556Z,94754.47
2023-03-17T02:51:53.651Z,94752.59
2023-03-17T02:54:23.006Z,94752.78
2023-03-17T02:56:50.906Z,94758.63
2023-03-17T02:59:18.766Z,94738.50
2023-03-17T03:01:48.626Z,94759.22
2023-03-17T03:04:16.577Z,94760.53
2023-03-17T03:06:45.047Z,94749.34
2023-03-17T03:09:13.883Z,94766.72
2023-03-17T03:11:43.728Z,94756.97
2023-03-17T03:14:12.308Z,94763.66
2023-03-17T03:16:40.413Z,94773.94
2023-03-17T03:19:09.035Z,94766.53
2023-03-17T03:21:37.726Z,94767.09
2023-03-17T03:24:07.282Z,94773.56
2023-03-17T03:26:35.318Z,94770.88
2023-03-17T03:29:04.905Z,94778.47
2023-03-17T03:31:32.881Z,94787.50
2023-03-17T03:34:01.006Z,94778.69
2023-03-17T03:36:28.940Z,94778.47
2023-03-17T03:38:57.421Z,94786.84
2023-03-17T03:41:26.348Z,94787.56
2023-03-17T03:43:54.370Z,94789.09
2023-03-17T03:46:23.833Z,94776.22
2023-03-17T03:48:51.675Z,94777.75
2023-03-17T03:51:19.664Z,94785.50
2023-03-17T03:53:48.365Z,94790.19
2023-03-17T03:56:16.543Z,94792.50
2023-03-17T03:58:44.492Z,94790.91
2023-03-17T04:01:12.811Z,94792.91
2023-03-17T04:03:42.045Z,94798.28
2023-03-17T04:06:10.002Z,94798.28
2023-03-17T04:08:37.878Z,94803.03
2023-03-17T04:11:06.494Z,94808.53
2023-03-17T04:13:34.437Z,94804.69
2023-03-17T04:16:03.435Z,94806.34
2023-03-17T04:18:31.714Z,94819.25
2023-03-17T04:21:01.060Z,94813.91
2023-03-17T04:23:28.991Z,94824.63
2023-03-17T04:25:56.857Z,94816.09
2023-03-17T04:28:24.891Z,94800.53
2023-03-17T04:30:52.781Z,94818.28
2023-03-17T04:33:20.865Z,94817.91
2023-03-17T04:35:48.902Z,94828.94
2023-03-17T04:38:18.270Z,94828.34
2023-03-17T04:40:46.281Z,94840.41
2023-03-17T04:43:14.263Z,94831.34
2023-03-17T04:45:42.194Z,94829.13
2023-03-17T04:48:10.079Z,94840.84
2023-03-17T04:50:38.029Z,94804.50
2023-03-17T04:53:06.847Z,94801.03
2023-03-17T04:55:36.744Z,94848.28
2023-03-17T04:58:04.753Z,94851.06
2023-03-17T05:00:38.650Z,94841.38
2023-03-17T05:03:23.872Z,94849.19
2023-03-17T05:05:54.267Z,94850.91
2023-03-17T05:08:22.147Z,94849.91
2023-03-17T05:10:51.930Z,94850.56
2023-03-17T05:13:20.072Z,94863.47
2023-03-17T05:15:48.899Z,94863.66
2023-03-17T05:18:17.538Z,94872.75
2023-03-17T05:20:45.556Z,94852.81
2023-03-17T05:23:13.485Z,94875.50
2023-03-17T05:25:41.727Z,94850.25
2023-03-17T05:28:11.505Z,94865.19
2023-03-17T05:30:39.525Z,94876.31
2023-03-17T05:33:08.909Z,94890.44
2023-03-17T05:35:36.921Z,94892.69
2023-03-17T05:38:04.963Z,94875.69
2023-03-17T05:40:33.082Z,94879.97
2023-03-17T05:43:01.155Z,94889.78
2023-03-17T05:45:30.531Z,94893.75
2023-03-17T05:47:58.998Z,94866.41
2023-03-17T05:50:27.844Z,94879.41
2023-03-17T05:52:55.778Z,94896.94
2023-03-17T05:55:24.851Z,94893.38
2023-03-17T05:57:52.740Z,94893.44
2023-03-17T06:00:21.761Z,94912.47
2023-03-17T06:02:51.208Z,94896.44
2023-03-17T06:05:19.339Z,94921.31
2023-03-17T06:07:54.632Z,94924.19
2023-03-17T06:10:24.631Z,94897.09
2023-03-17T06:12:52.529Z,94935.84
2023-03-17T06:15:20.762Z,94941.56
2023-03-17T06:17:50.082Z,94939.38
2023-03-17T06:20:18.195Z,94918.84
2023-03-17T06:23:02.722Z,94942.50
2023-03-17T06:25:32.174Z,94940.84
2023-03-17T06:28:02.463Z,94943.53
2023-03-17T06:30:31.393Z,94949.56
2023-03-17T06:33:01.235Z,94952.50
2023-03-17T06:35:30.006Z,94939.50
2023-03-17T06:37:58.191Z,94954.44
2023-03-17T06:40:26.097Z,94955.13
2023-03-17T06:42:54.200Z,94954.88
2023-03-17T06:45:22.085Z,94962.41
2023-03-17T06:47:49.966Z,94961.75
2023-03-17T06:50:19.480Z,94960.47
2023-03-17T06:52:47.355Z,94964.00
2023-03-17T06:55:15.909Z,94963.63
2023-03-17T06:57:44.256Z,94964.34
2023-03-17T07:00:14.228Z,94970.44
2023-03-17T07:02:43.133Z,94966.03
2023-03-17T07:05:12.723Z,94970.16
2023-03-17T07:07:42.547Z,94973.28
2023-03-17T07:10:13.804Z,94955.31
2023-03-17T07:12:41.734Z,94974.78
2023-03-17T07:15:12.546Z,94971.19
2023-03-17T07:17:40.632Z,94981.47
2023-03-17T07:20:09.730Z,94972.50
2023-03-17T07:22:37.762Z,94981.50
2023-03-17T07:25:08.276Z,94964.56
2023-03-17T07:27:36.306Z,94964.22
2023-03-17T07:30:05.231Z,94978.81
2023-03-17T07:32:33.759Z,94992.47
2023-03-17T07:35:01.767Z,94992.91
2023-03-17T07:37:29.730Z,94993.84
2023-03-17T07:39:57.767Z,94975.50
2023-03-17T07:42:29.060Z,94973.44
2023-03-17T07:44:57.022Z,94996.22
2023-03-17T07:47:24.963Z,94999.69
2023-03-17T07:49:53.514Z,94998.19
2023-03-17T07:52:21.662Z,94996.34
2023-03-17T07:54:51.539Z,94998.78
2023-03-17T07:57:19.502Z,95009.44
2023-03-17T07:59:49.427Z,94978.97
2023-03-17T08:02:21.181Z,95012.22
2023-03-17T08:04:49.312Z,95012.56
2023-03-17T08:07:17.210Z,95015.38
2023-03-17T08:09:45.133Z,95004.63
2023-03-17T08:12:13.505Z,94989.91
2023-03-17T08:14:41.754Z,95012.06
2023-03-17T08:17:11.494Z,95012.53
2023-03-17T08:19:39.525Z,95011.81
2023-03-17T08:22:07.864Z,95007.16
2023-03-17T08:24:37.118Z,95020.56
2023-03-17T08:27:05.204Z,95008.09
2023-03-17T08:29:33.641Z,95020.03
2023-03-17T08:32:01.699Z,94993.97
2023-03-17T08:34:31.140Z,94975.38
2023-03-17T08:36:59.338Z,95012.75
2023-03-17T08:39:27.345Z,94995.47
2023-03-17T08:41:55.756Z,94981.44
2023-03-17T08:44:23.746Z,94991.69
2023-03-17T08:46:52.778Z,95019.19
2023-03-17T08:49:21.705Z,95013.53
2023-03-17T08:51:53.461Z,94999.72
2023-03-17T08:54:21.641Z,95021.66
2023-03-17T08:56:49.501Z,95011.88
2023-03-17T08:59:17.462Z,95014.66
2023-03-17T09:01:45.792Z,95017.66
2023-03-17T09:04:13.958Z,95015.56
2023-03-17T09:06:51.852Z,95023.69
2023-03-17T09:09:32.204Z,95020.53
2023-03-17T09:12:00.653Z,95030.41
2023-03-17T09:14:30.552Z,95012.94
2023-03-17T09:17:01.218Z,95030.28
2023-03-17T09:19:29.133Z,95006.81
2023-03-17T09:21:57.119Z,95022.44
2023-03-17T09:24:25.560Z,95025.63
2023-03-17T09:26:55.000Z,95027.06
2023-03-17T09:29:22.950Z,95024.44
2023-03-17T09:31:50.989Z,95027.38
2023-03-17T09:34:19.168Z,95023.56
2023-03-17T09:36:47.128Z,95004.97
2023-03-17T09:39:15.031Z,95023.63
2023-03-17T09:41:57.152Z,95023.00
2023-03-17T09:44:41.244Z,95002.16
2023-03-17T09:47:22.685Z,95043.53
2023-03-17T09:49:54.052Z,95033.16
2023-03-17T09:52:28.126Z,95043.25
2023-03-17T09:54:57.080Z,95042.81
2023-03-17T09:57:30.551Z,95044.97
2023-03-17T10:00:06.608Z,95045.75
2023-03-17T10:02:37.600Z,95043.41
2023-03-17T10:05:19.794Z,95030.47
2023-03-17T10:07:52.848Z,95015.72
2023-03-17T10:10:29.454Z,95018.78
2023-03-17T10:13:08.604Z,95028.06
2023-03-17T10:15:47.059Z,95001.03
2023-03-17T10:18:18.328Z,95032.22
2023-03-17T10:20:56.130Z,95040.66
2023-03-17T10:23:29.694Z,95034.13
2023-03-17T10:26:01.789Z,95032.75
2023-03-17T10:28:32.653Z,95024.59
2023-03-17T10:31:13.195Z,95029.06
2023-03-17T10:33:41.436Z,95018.72
2023-03-17T10:36:10.713Z,95023.84
2023-03-17T10:38:39.188Z,95037.84
2023-03-17T10:41:10.279Z,95035.25
2023-03-17T10:43:46.284Z,95008.69
2023-03-17T10:46:23.478Z,95012.06
2023-03-17T10:48:54.475Z,95028.19
2023-03-17T10:51:31.752Z,95015.25
2023-03-17T10:54:04.047Z,95014.59
2023-03-17T10:56:37.446Z,95012.91
2023-03-17T10:59:16.574Z,95009.66
2023-03-17T11:01:51.849Z,95005.88
2023-03-17T11:04:34.122Z,94972.22
2023-03-17T11:07:08.114Z,94966.13
2023-03-17T11:09:37.882Z,94947.94
2023-03-17T11:12:08.912Z,94968.53
2023-03-17T11:14:37.487Z,94982.84
2023-03-17T11:17:19.208Z,94972.69
2023-03-17T11:19:52.174Z,94973.47
2023-03-17T11:22:29.456Z,94971.09
2023-03-17T11:25:04.399Z,94991.16
2023-03-17T11:27:36.136Z,94981.19
2023-03-17T11:30:30.664Z,94985.50
2023-03-17T11:33:07.356Z,94968.91
2023-03-17T11:35:43.605Z,94978.94
2023-03-17T11:38:24.586Z,94979.69
2023-03-17T11:41:12.130Z,94964.88
2023-03-17T11:43:54.195Z,94977.53
2023-03-17T11:46:28.124Z,94981.69
2023-03-17T11:49:04.896Z,94966.22
2023-03-17T11:51:43.590Z,94977.31
2023-03-17T11:54:24.152Z,94966.00
2023-03-17T11:56:54.318Z,94961.72
2023-03-17T11:59:32.797Z,94965.88
2023-03-17T12:02:08.135Z,94964.34
2023-03-17T12:04:44.816Z,94953.00
2023-03-17T12:07:21.917Z,94963.38
2023-03-17T12:09:58.240Z,94928.03
2023-03-17T12:12:31.696Z,94934.25
2023-03-17T12:15:02.231Z,94941.19
2023-03-17T12:17:35.865Z,94941.13
2023-03-17T12:20:12.735Z,94949.41
2023-03-17T12:22:47.412Z,94937.53
2023-03-17T12:25:22.470Z,94933.78
2023-03-17T12:27:58.152Z,94946.25
2023-03-17T12:30:33.115Z,94946.00
2023-03-17T12:33:12.081Z,94934.03
2023-03-17T12:35:41.450Z,94944.28
2023-03-17T12:38:17.037Z,94937.38
2023-03-17T12:41:03.119Z,94938.34
2023-03-17T12:43:42.907Z,94931.81
2023-03-17T12:46:31.823Z,94927.38
2023-03-17T12:49:28.273Z,94931.00
2023-03-17T12:52:07.040Z,94934.13
2023-03-17T12:54:37.808Z,94938.59
2023-03-17T12:57:14.141Z,94916.59
2023-03-17T12:59:44.493Z,94904.81
2023-03-17T13:02:32.111Z,94914.72
2023-03-17T13:05:02.233Z,94933.75
2023-03-17T13:07:38.989Z,94924.63
2023-03-17T13:10:20.270Z,94920.41
2023-03-17T13:13:13.828Z,94936.38
2023-03-17T13:16:00.533Z,94935.94
2023-03-17T13:18:49.434Z,94934.19
2023-03-17T13:21:20.590Z,94940.50
2023-03-17T13:23:56.538Z,94932.72
2023-03-17T13:26:55.646Z,94928.81
2023-03-17T13:29:43.135Z,94914.44
2023-03-17T13:32:42.879Z,94923.84
2023-03-17T13:35:41.600Z,94921.31
2023-03-17T13:38:38.649Z,94927.09
2023-03-17T13:41:34.505Z,94916.59
2023-03-17T13:44:23.661Z,94920.66
2023-03-17T13:46:52.554Z,94923.94
2023-03-17T13:49:25.683Z,94937.56
2023-03-17T13:52:00.373Z,94913.03
2023-03-17T13:54:35.888Z,94923.53
2023-03-17T13:57:24.532Z,94928.81
2023-03-17T14:00:33.162Z,94931.66
2023-03-17T14:03:06.890Z,94939.16
2023-03-17T14:05:38.078Z,94920.00
2023-03-17T14:08:14.037Z,94926.63
2023-03-17T14:10:43.613Z,94939.56
2023-03-17T14:13:22.990Z,94910.66
2023-03-17T14:15:56.735Z,94936.94
2023-03-17T14:18:34.271Z,94911.03
2023-03-17T14:21:09.956Z,94931.06
2023-03-17T14:23:39.606Z,94937.00
2023-03-17T14:26:12.353Z,94917.72
2023-03-17T14:28:42.267Z,94949.66
2023-03-17T14:31:24.007Z,94942.13
2023-03-17T14:33:55.869Z,94936.59
2023-03-17T14:36:24.902Z,94937.31
2023-03-17T14:38:54.167Z,94954.84
2023-03-17T14:41:23.870Z,94944.50
2023-03-17T14:43:54.931Z,94912.69
2023-03-17T14:46:25.234Z,94924.50
2023-03-17T14:49:00.294Z,94946.47
2023-03-17T14:51:31.165Z,94941.81
2023-03-17T14:54:17.741Z,94923.09
2023-03-17T14:56:57.927Z,94896.16
2023-03-17T14:59:32.049Z,94947.53
2023-03-17T15:02:02.178Z,94937.34
2023-03-17T15:04:32.051Z,94951.22
2023-03-17T15:07:01.819Z,94939.03
2023-03-17T15:09:31.796Z,94952.69
2023-03-17T15:12:04.863Z,94961.25
2023-03-17T15:14:36.437Z,94951.25
2023-03-17T15:17:06.747Z,94960.78
2023-03-17T15:19:41.781Z,94967.44
2023-03-17T15:22:25.307Z,94957.09
2023-03-17T15:25:04.883Z,94972.91
2023-03-17T15:27:33.364Z,94958.03
2023-03-17T15:30:03.291Z,94978.34
2023-03-17T15:32:34.066Z,94980.53
2023-03-17T15:35:02.172Z,94968.84
2023-03-17T15:37:32.672Z,94967.09
2023-03-17T15:40:03.475Z,94954.09
2023-03-17T15:42:33.288Z,94987.91
2023-03-17T15:45:03.966Z,94977.63
2023-03-17T15:47:33.988Z,94951.34
2023-03-17T15:50:13.019Z,94978.00
2023-03-17T15:52:41.107Z,94982.78
2023-03-17T15:55:16.911Z,94970.63
2023-03-17T15:57:53.847Z,94960.53
2023-03-17T16:00:26.714Z,94981.06
2023-03-17T16:02:56.420Z,94969.00
2023-03-17T16:05:37.849Z,94994.00
2023-03-17T16:08:06.317Z,94947.06
2023-03-17T16:10:37.518Z,94978.28
2023-03-17T16:13:05.593Z,94967.19
2023-03-17T16:15:38.943Z,94981.38
2023-03-17T16:18:11.568Z,94994.44
2023-03-17T16:20:43.563Z,94993.91
2023-03-17T16:23:16.841Z,94989.44
2023-03-17T16:25:46.778Z,94983.34
2023-03-17T16:28:17.229Z,94983.50
2023-03-17T16:30:50.672Z,94977.69
2023-03-17T16:33:23.539Z,94998.22
2023-03-17T16:35:53.577Z,95009.09
2023-03-17T16:38:23.907Z,94984.59
2023-03-17T16:40:54.756Z,94999.69
2023-03-17T16:43:25.997Z,95013.00
2023-03-17T16:46:02.702Z,95002.56
2023-03-17T16:48:35.367Z,95021.84
2023-03-17T16:51:03.648Z,94982.22
2023-03-17T16:53:31.994Z,95019.16
2023-03-17T16:56:00.495Z,95005.28
2023-03-17T16:58:32.764Z,95009.25
2023-03-17T17:01:03.925Z,94998.38
2023-03-17T17:03:32.438Z,95011.69
2023-03-17T17:06:00.693Z,95000.84
2023-03-17T17:08:28.905Z,94998.25
2023-03-17T17:10:58.941Z,95009.13
2023-03-17T17:13:33.496Z,95010.91
2023-03-17T17:16:06.213Z,95011.97
2023-03-17T17:18:42.987Z,95004.44
2023-03-17T17:21:11.052Z,94996.00
2023-03-17T17:23:39.179Z,94999.91
2023-03-17T17:26:10.051Z,95006.97
2023-03-17T17:28:40.201Z,95024.50
2023-03-17T17:31:09.941Z,95036.47
2023-03-17T17:33:39.039Z,95013.34
2023-03-17T17:36:09.253Z,95019.72
2023-03-17T17:38:37.263Z,95031.13
2023-03-17T17:41:05.909Z,95038.56
2023-03-17T17:43:34.612Z,95035.16
2023-03-17T17:46:02.803Z,95035.94
2023-03-17T17:48:32.785Z,95024.75
2023-03-17T17:51:04.992Z,95030.03
2023-03-17T17:53:34.501Z,95048.63
2023-03-17T17:56:02.724Z,95038.97
2023-03-17T17:58:31.133Z,95016.13
2023-03-17T18:00:59.543Z,95004.72
2023-03-17T18:03:28.116Z,95029.34
2023-03-17T18:05:59.139Z,95032.88
2023-03-17T18:08:27.735Z,95042.03
2023-03-17T18:10:57.398Z,95039.66
2023-03-17T18:13:25.477Z,95032.00
2023-03-17T18:15:53.727Z,95037.81
2023-03-17T18:18:21.814Z,95035.50
2023-03-17T18:20:49.885Z,95023.00
2023-03-17T18:23:20.395Z,95022.81
2023-03-17T18:25:49.335Z,95024.44
2023-03-17T18:28:17.436Z,95024.75
2023-03-17T18:30:46.384Z,95009.50
2023-03-17T18:33:18.041Z,95037.03
2023-03-17T18:35:49.527Z,95010.50
2023-03-17T18:38:17.536Z,95035.28
2023-03-17T18:40:47.128Z,95041.56
2023-03-17T18:43:15.550Z,95025.16
2023-03-17T18:45:43.747Z,95040.19
2023-03-17T18:48:11.741Z,95038.56
2023-03-17T18:50:39.825Z,95043.69
2023-03-17T18:53:07.830Z,95022.94
2023-03-17T18:55:35.739Z,95056.31
2023-03-17T18:58:11.504Z,95036.00
2023-03-17T19:00:39.690Z,95058.31
2023-03-17T19:03:08.370Z,95033.94
2023-03-17T19:05:39.557Z,95025.75
2023-03-17T19:08:08.100Z,95045.81
2023-03-17T19:10:37.343Z,95039.41
2023-03-17T19:13:10.206Z,95047.25
2023-03-17T19:15:38.457Z,95030.44
2023-03-17T19:18:06.989Z,95048.50
2023-03-17T19:20:36.817Z,95033.22
2023-03-17T19:23:05.873Z,95036.50
2023-03-17T19:25:33.970Z,95036.06
2023-03-17T19:28:03.311Z,95044.56
2023-03-17T19:30:32.897Z,95049.69
2023-03-17T19:33:01.455Z,95031.25
2023-03-17T19:35:29.763Z,95017.75
2023-03-17T19:37:58.229Z,95019.50
2023-03-17T19:40:26.319Z,95028.38
2023-03-17T19:42:54.852Z,95008.53
2023-03-17T19:45:24.157Z,95015.41
2023-03-17T19:47:54.137Z,95017.03
2023-03-17T19:50:22.298Z,95023.13
2023-03-17T19:52:53.167Z,95021.38
2023-03-17T19:55:25.010Z,95029.88
2023-03-17T19:57:53.296Z,95029.75
2023-03-17T20:00:22.602Z,95017.16
2023-03-17T20:02:51.017Z,95027.63
2023-03-17T20:05:23.397Z,94997.97
2023-03-17T20:07:53.343Z,95023.22
2023-03-17T20:10:21.428Z,95032.13
2023-03-17T20:12:49.511Z,95015.19
2023-03-17T20:15:17.760Z,95003.59
2023-03-17T20:17:46.457Z,94992.88
2023-03-17T20:20:15.411Z,95017.63
2023-03-17T20:22:45.302Z,95003.63
2023-03-17T20:25:13.660Z,95006.91
2023-03-17T20:27:42.634Z,94986.06
2023-03-17T20:30:13.381Z,95000.63
2023-03-17T20:32:41.770Z,95012.78
2023-03-17T20:35:10.789Z,95016.03
2023-03-17T20:37:40.044Z,94993.81
2023-03-17T20:40:11.447Z,94988.34
2023-03-17T20:42:39.585Z,94998.75
2023-03-17T20:45:08.941Z,95013.00
2023-03-17T20:47:37.677Z,94983.69
2023-03-17T20:50:08.569Z,94993.97
2023-03-17T20:52:37.026Z,95005.78
2023-03-17T20:55:06.422Z,95007.09
2023-03-17T20:57:36.893Z,95012.69
2023-03-17T21:00:05.753Z,94988.91
2023-03-17T21:02:34.484Z,95003.94
2023-03-17T21:05:02.704Z,94993.06
2023-03-17T21:07:31.234Z,95002.06
2023-03-17T21:10:03.481Z,95000.22
2023-03-17T21:12:31.865Z,95017.38
2023-03-17T21:15:02.188Z,95009.19
2023-03-17T21:17:30.927Z,95006.28
2023-03-17T21:19:59.440Z,95002.06
2023-03-17T21:22:27.934Z,94982.44
2023-03-17T21:24:56.801Z,95005.09
2023-03-17T21:27:25.078Z,94992.81
2023-03-17T21:29:56.991Z,94977.19
2023-03-17T21:32:26.824Z,94986.03
2023-03-17T21:34:55.515Z,94947.38
2023-03-17T21:37:23.842Z,94997.84
2023-03-17T21:39:52.230Z,94976.44
2023-03-17T21:42:20.890Z,95000.94
2023-03-17T21:44:49.567Z,94999.22
2023-03-17T21:47:20.504Z,94978.38
2023-03-17T21:49:53.176Z,94999.41
2023-03-17T21:52:29.135Z,94981.16
2023-03-17T21:54:57.368Z,94981.16
2023-03-17T21:57:30.283Z,94966.75
2023-03-17T22:00:00.199Z,94991.28
2023-03-17T22:02:28.529Z,94993.59
2023-03-17T22:04:58.193Z,94995.34
2023-03-17T22:07:26.571Z,94995.13
2023-03-17T22:09:57.088Z,94997.91
2023-03-17T22:12:25.589Z,94981.81
2023-03-17T22:14:53.725Z,94972.50
2023-03-17T22:17:21.828Z,94991.94
2023-03-17T22:19:49.882Z,94990.28
2023-03-17T22:22:20.771Z,94979.81
2023-03-17T22:24:48.902Z,94961.22
2023-03-17T22:27:18.242Z,94975.34
2023-03-17T22:29:46.750Z,94962.34
2023-03-17T22:32:15.479Z,94971.25
2023-03-17T22:34:43.770Z,94972.09
2023-03-17T22:37:11.975Z,94972.69
2023-03-17T22:39:41.544Z,94964.22
2023-03-17T22:42:09.585Z,94978.59
2023-03-17T22:44:37.655Z,94982.75
2023-03-17T22:47:06.377Z,94976.53
2023-03-17T22:49:34.398Z,94962.50
2023-03-17T22:52:02.499Z,94965.13
2023-03-17T22:54:30.490Z,94973.81
2023-03-17T22:56:59.878Z,94964.22
2023-03-17T22:59:27.942Z,94941.03
2023-03-17T23:01:56.205Z,94944.53
2023-03-17T23:04:24.633Z,94935.91
2023-03-17T23:06:53.012Z,94950.66
2023-03-17T23:09:21.446Z,94961.59
2023-03-17T23:11:49.442Z,94932.19
2023-03-17T23:14:19.024Z,94955.38
2023-03-17T23:16:48.200Z,94945.34
2023-03-17T23:19:16.707Z,94943.34
2023-03-17T23:21:45.566Z,94951.09
2023-03-17T23:24:13.618Z,94953.91
2023-03-17T23:26:42.029Z,94940.72
2023-03-17T23:29:10.518Z,94964.16
2023-03-17T23:31:41.056Z,94938.88
2023-03-17T23:34:10.725Z,94941.81
2023-03-17T23:36:40.263Z,94957.31
2023-03-17T23:39:09.189Z,94928.09
2023-03-17T23:41:37.377Z,94947.00
2023-03-17T23:44:06.623Z,94947.59
2023-03-17T23:46:34.749Z,94949.66
2023-03-17T23:49:04.779Z,94912.25
2023-03-17T23:51:33.482Z,94944.97
2023-03-17T23:54:01.803Z,94943.47
2023-03-17T23:56:29.832Z,94928.91
2023-03-17T23:58:57.905Z,94933.28
